Magnolia, Iowa
Current Conditions -  °F | °C
As of 10:54 PM on Thursday 30 Oct 2014 (Local Time) from KTQE Reporting Station
Overcast Overcast  
Wind Chill: 31°   Ceiling: 2500
Heat Index: 42°   Visibility: 10mi
Dew Point: 31°   Wind: 30mph
Humidity: 65%   Direction: 350°N
Pressure: 30.38"   Gusts: 39mph
Location:  41.7°N, 95.88°W
Report Text: KTQE 310354Z AUTO 35026G34KT 10SM OVC025 06/M01 A3038 RMK AO2 PK WND 35034/0345 SLP287 T00561006
Loading
Personal Weather Stations






























Interactive Weather Map
Tropical Storm Tracking
New forecast layout! Learn more

10-Day Weather Forecast

Advertisements
Track Severe Weather on mobile